createdAt,value
2022-11-24T00:01:31.572Z,-1.73
2022-11-24T00:04:01.913Z,-1.74
2022-11-24T00:06:32.050Z,-1.73
2022-11-24T00:09:00.309Z,-1.74
2022-11-24T00:11:31.379Z,-1.73
2022-11-24T00:14:00.373Z,-1.73
2022-11-24T00:16:30.747Z,-1.74
2022-11-24T00:19:01.137Z,-1.73
2022-11-24T00:21:30.971Z,-1.75
2022-11-24T00:23:59.750Z,-1.74
2022-11-24T00:26:33.247Z,-1.72
2022-11-24T00:29:05.214Z,-1.74
2022-11-24T00:31:36.128Z,-1.73
2022-11-24T00:34:07.054Z,-1.71
2022-11-24T00:36:36.680Z,-1.68
2022-11-24T00:39:11.898Z,-1.66
2022-11-24T00:41:41.647Z,-1.64
2022-11-24T00:44:10.003Z,-1.64
2022-11-24T00:46:38.681Z,-1.63
2022-11-24T00:49:07.036Z,-1.63
2022-11-24T00:51:35.195Z,-1.63
2022-11-24T00:54:03.649Z,-1.59
2022-11-24T00:56:31.723Z,-1.57
2022-11-24T00:58:59.764Z,-1.59
2022-11-24T01:01:31.276Z,-1.57
2022-11-24T01:04:03.919Z,-1.55
2022-11-24T01:06:32.849Z,-1.53
2022-11-24T01:09:01.484Z,-1.51
2022-11-24T01:11:55.283Z,-1.50
2022-11-24T01:14:25.063Z,-1.50
2022-11-24T01:16:53.825Z,-1.50
2022-11-24T01:19:22.280Z,-1.50
2022-11-24T01:21:51.191Z,-1.50
2022-11-24T01:24:19.511Z,-1.48
2022-11-24T01:26:47.716Z,-1.46
2022-11-24T01:29:15.758Z,-1.44
2022-11-24T01:31:43.801Z,-1.41
2022-11-24T01:34:13.115Z,-1.41
2022-11-24T01:36:41.293Z,-1.40
2022-11-24T01:39:09.440Z,-1.40
2022-11-24T01:41:37.599Z,-1.40
2022-11-24T01:44:27.020Z,-1.39
2022-11-24T01:47:32.993Z,-1.41
2022-11-24T01:50:04.847Z,-1.44
2022-11-24T01:52:53.935Z,-1.44
2022-11-24T01:55:25.936Z,-1.43
2022-11-24T01:57:59.656Z,-1.41
2022-11-24T02:00:27.721Z,-1.41
2022-11-24T02:02:59.247Z,-1.40
2022-11-24T02:05:37.504Z,-1.40
2022-11-24T02:08:11.141Z,-1.40
2022-11-24T02:10:39.639Z,-1.38
2022-11-24T02:13:07.739Z,-1.37
2022-11-24T02:15:36.014Z,-1.36
2022-11-24T02:18:04.295Z,-1.35
2022-11-24T02:20:32.415Z,-1.34
2022-11-24T02:23:15.762Z,-1.34
2022-11-24T02:26:13.708Z,-1.34
2022-11-24T02:28:41.908Z,-1.34
2022-11-24T02:31:10.587Z,-1.34
2022-11-24T02:33:39.130Z,-1.35
2022-11-24T02:36:07.442Z,-1.34
2022-11-24T02:38:36.250Z,-1.33
2022-11-24T02:41:07.835Z,-1.33
2022-11-24T02:43:41.649Z,-1.32
2022-11-24T02:46:11.034Z,-1.32
2022-11-24T02:48:39.240Z,-1.31
2022-11-24T02:51:07.788Z,-1.29
2022-11-24T02:53:35.827Z,-1.28
2022-11-24T02:56:04.322Z,-1.29
2022-11-24T02:58:32.462Z,-1.29
2022-11-24T03:01:00.608Z,-1.29
2022-11-24T03:03:28.772Z,-1.29
2022-11-24T03:05:56.822Z,-1.29
2022-11-24T03:08:24.906Z,-1.28
2022-11-24T03:10:52.939Z,-1.28
2022-11-24T03:13:20.957Z,-1.28
2022-11-24T03:15:49.245Z,-1.29
2022-11-24T03:18:17.787Z,-1.28
2022-11-24T03:20:45.961Z,-1.29
2022-11-24T03:23:14.427Z,-1.28
2022-11-24T03:25:42.488Z,-1.26
2022-11-24T03:28:10.498Z,-1.25
2022-11-24T03:30:38.574Z,-1.25
2022-11-24T03:33:07.372Z,-1.25
2022-11-24T03:35:35.412Z,-1.24
2022-11-24T03:38:03.549Z,-1.24
2022-11-24T03:40:31.666Z,-1.23
2022-11-24T03:43:00.683Z,-1.23
2022-11-24T03:48:18.952Z,-1.23
2022-11-24T03:50:56.305Z,-1.23
2022-11-24T03:53:27.305Z,-1.22
2022-11-24T03:55:56.272Z,-1.22
2022-11-24T03:58:24.825Z,-1.21
2022-11-24T04:00:54.077Z,-1.20
2022-11-24T04:03:22.558Z,-1.21
2022-11-24T04:05:50.750Z,-1.21
2022-11-24T04:08:18.854Z,-1.22
2022-11-24T04:10:53.292Z,-1.22
2022-11-24T04:13:25.467Z,-1.22
2022-11-24T04:15:54.258Z,-1.22
2022-11-24T04:18:22.703Z,-1.21
2022-11-24T04:20:51.672Z,-1.19
2022-11-24T04:23:19.900Z,-1.19
2022-11-24T04:25:48.035Z,-1.19
2022-11-24T04:28:16.145Z,-1.18
2022-11-24T04:30:45.140Z,-1.18
2022-11-24T04:33:13.650Z,-1.18
2022-11-24T04:35:41.716Z,-1.19
2022-11-24T04:38:09.762Z,-1.20
2022-11-24T04:40:38.643Z,-1.21
2022-11-24T04:43:06.678Z,-1.21
2022-11-24T04:45:34.874Z,-1.21
2022-11-24T04:48:02.962Z,-1.21
2022-11-24T04:50:31.129Z,-1.21
2022-11-24T04:52:59.143Z,-1.21
2022-11-24T04:55:27.202Z,-1.19
2022-11-24T04:57:55.204Z,-1.18
2022-11-24T05:00:23.319Z,-1.19
2022-11-24T05:02:51.419Z,-1.18
2022-11-24T05:05:19.458Z,-1.17
2022-11-24T05:07:47.555Z,-1.16
2022-11-24T05:10:34.973Z,-1.16
2022-11-24T05:13:07.001Z,-1.16
2022-11-24T05:15:37.960Z,-1.16
2022-11-24T05:18:08.069Z,-1.15
2022-11-24T05:20:36.495Z,-1.15
2022-11-24T05:23:07.098Z,-1.15
2022-11-24T05:25:35.675Z,-1.15
2022-11-24T05:28:06.687Z,-1.16
2022-11-24T05:30:34.878Z,-1.15
2022-11-24T05:33:20.307Z,-1.15
2022-11-24T05:35:49.558Z,-1.14
2022-11-24T05:38:18.696Z,-1.13
2022-11-24T05:40:46.983Z,-1.12
2022-11-24T05:43:16.688Z,-1.11
2022-11-24T05:45:45.474Z,-1.10
2022-11-24T05:48:15.098Z,-1.11
2022-11-24T05:50:43.357Z,-1.12
2022-11-24T05:53:13.460Z,-1.13
2022-11-24T05:55:41.584Z,-1.16
2022-11-24T05:58:10.491Z,-1.16
2022-11-24T06:00:39.807Z,-1.16
2022-11-24T06:03:09.241Z,-1.16
2022-11-24T06:05:38.364Z,-1.17
2022-11-24T06:08:07.243Z,-1.17
2022-11-24T06:10:35.308Z,-1.17
2022-11-24T06:13:07.979Z,-1.18
2022-11-24T06:15:37.890Z,-1.17
2022-11-24T06:18:06.090Z,-1.17
2022-11-24T06:20:34.288Z,-1.17
2022-11-24T06:23:02.451Z,-1.18
2022-11-24T06:25:31.312Z,-1.19
2022-11-24T06:28:03.777Z,-1.19
2022-11-24T06:30:32.121Z,-1.18
2022-11-24T06:33:00.415Z,-1.17
2022-11-24T06:35:28.826Z,-1.17
2022-11-24T06:37:56.902Z,-1.16
2022-11-24T06:40:24.944Z,-1.15
2022-11-24T06:42:53.184Z,-1.13
2022-11-24T06:45:21.882Z,-1.10
2022-11-24T06:47:50.036Z,-1.10
2022-11-24T06:50:18.274Z,-1.10
2022-11-24T06:52:46.406Z,-1.10
2022-11-24T06:55:14.544Z,-1.11
2022-11-24T06:57:42.653Z,-1.10
2022-11-24T07:00:11.624Z,-1.11
2022-11-24T07:02:45.436Z,-1.09
2022-11-24T07:05:14.947Z,-1.08
2022-11-24T07:07:43.140Z,-1.08
2022-11-24T07:10:11.272Z,-1.08
2022-11-24T07:12:39.326Z,-1.07
2022-11-24T07:15:08.544Z,-1.07
2022-11-24T07:17:38.144Z,-1.08
2022-11-24T07:20:08.712Z,-1.07
2022-11-24T07:22:36.759Z,-1.07
2022-11-24T07:25:07.519Z,-1.07
2022-11-24T07:27:36.429Z,-1.06
2022-11-24T07:30:04.817Z,-1.06
2022-11-24T07:32:33.133Z,-1.05
2022-11-24T07:35:01.184Z,-1.07
2022-11-24T07:37:31.503Z,-1.04
2022-11-24T07:40:00.208Z,-1.03
2022-11-24T07:42:29.090Z,-1.03
2022-11-24T07:44:57.301Z,-1.03
2022-11-24T07:47:25.417Z,-1.04
2022-11-24T07:49:53.605Z,-1.02
2022-11-24T07:52:21.686Z,-1.01
2022-11-24T07:54:49.778Z,-1.00
2022-11-24T07:57:17.793Z,-0.99
2022-11-24T07:59:45.895Z,-0.98
2022-11-24T08:02:14.368Z,-0.97
2022-11-24T08:04:43.488Z,-0.97
2022-11-24T08:07:11.609Z,-0.96
2022-11-24T08:09:39.760Z,-0.93
2022-11-24T08:12:07.921Z,-0.91
2022-11-24T08:14:36.375Z,-0.92
2022-11-24T08:17:04.611Z,-0.91
2022-11-24T08:19:32.884Z,-0.90
2022-11-24T08:22:01.148Z,-0.89
2022-11-24T08:24:29.246Z,-0.88
2022-11-24T08:26:57.347Z,-0.86
2022-11-24T08:29:29.797Z,-0.86
2022-11-24T08:31:58.145Z,-0.85
2022-11-24T08:34:29.054Z,-0.84
2022-11-24T08:36:57.079Z,-0.84
2022-11-24T08:39:25.502Z,-0.83
2022-11-24T08:41:53.978Z,-0.81
2022-11-24T08:44:22.786Z,-0.79
2022-11-24T08:46:50.949Z,-0.77
2022-11-24T08:49:19.119Z,-0.75
2022-11-24T08:51:48.727Z,-0.72
2022-11-24T08:54:18.949Z,-0.71
2022-11-24T08:56:49.550Z,-0.69
2022-11-24T08:59:18.466Z,-0.69
2022-11-24T09:01:47.543Z,-0.68
2022-11-24T09:04:16.323Z,-0.67
2022-11-24T09:06:44.542Z,-0.65
2022-11-24T09:09:12.951Z,-0.64
2022-11-24T09:11:41.089Z,-0.61
2022-11-24T09:14:09.267Z,-0.57
2022-11-24T09:16:37.395Z,-0.57
2022-11-24T09:19:08.221Z,-0.57
2022-11-24T09:21:39.627Z,-0.58
2022-11-24T09:24:09.857Z,-0.58
2022-11-24T09:26:43.119Z,-0.58
2022-11-24T09:29:14.519Z,-0.58
2022-11-24T09:31:42.634Z,-0.59
2022-11-24T09:34:14.595Z,-0.60
2022-11-24T09:36:43.531Z,-0.61
2022-11-24T09:39:12.068Z,-0.60
2022-11-24T09:42:17.844Z,-0.58
2022-11-24T09:44:52.160Z,-0.56
2022-11-24T09:47:55.348Z,-0.54
2022-11-24T09:50:27.106Z,-0.51
2022-11-24T09:53:12.690Z,-0.49
2022-11-24T09:55:49.748Z,-0.48
2022-11-24T09:58:38.912Z,-0.46
2022-11-24T10:01:19.001Z,-0.46
2022-11-24T10:03:52.478Z,-0.43
2022-11-24T10:06:31.532Z,-0.42
2022-11-24T10:09:21.648Z,-0.40
2022-11-24T10:12:02.941Z,-0.37
2022-11-24T10:15:19.245Z,-0.36
2022-11-24T10:18:18.510Z,-0.35
2022-11-24T10:21:14.502Z,-0.33
2022-11-24T10:23:54.817Z,-0.34
2022-11-24T10:26:31.700Z,-0.34
2022-11-24T10:29:06.400Z,-0.34
2022-11-24T10:31:37.758Z,-0.34
2022-11-24T10:34:19.805Z,-0.34
2022-11-24T10:37:12.710Z,-0.34
2022-11-24T10:39:41.018Z,-0.35
2022-11-24T10:42:15.395Z,-0.34
2022-11-24T10:44:43.973Z,-0.34
2022-11-24T10:47:22.978Z,-0.37
2022-11-24T10:49:58.156Z,-0.36
2022-11-24T10:52:31.677Z,-0.37
2022-11-24T10:55:02.625Z,-0.37
2022-11-24T10:57:34.006Z,-0.38
2022-11-24T11:00:25.725Z,-0.38
2022-11-24T11:03:26.953Z,-0.39
2022-11-24T11:06:04.479Z,-0.40
2022-11-24T11:08:32.717Z,-0.43
2022-11-24T11:11:22.617Z,-0.44
2022-11-24T11:14:02.937Z,-0.46
2022-11-24T11:16:40.543Z,-0.48
2022-11-24T11:19:49.888Z,-0.48
2022-11-24T11:22:27.814Z,-0.48
2022-11-24T11:25:08.119Z,-0.49
2022-11-24T11:27:37.464Z,-0.46
2022-11-24T11:36:11.494Z,-0.46
2022-11-24T11:38:40.947Z,-0.47
2022-11-24T11:41:22.568Z,-0.48
2022-11-24T11:44:21.548Z,-0.49
2022-11-24T11:46:49.911Z,-0.49
2022-11-24T11:49:18.097Z,-0.49
2022-11-24T11:52:14.127Z,-0.48
2022-11-24T11:54:45.035Z,-0.47
2022-11-24T11:57:22.044Z,-0.47
2022-11-24T11:59:50.208Z,-0.48
2022-11-24T12:02:41.345Z,-0.50
2022-11-24T12:05:25.420Z,-0.51
2022-11-24T12:08:23.619Z,-0.51
2022-11-24T12:10:54.321Z,-0.50
2022-11-24T12:13:56.875Z,-0.51
2022-11-24T12:16:59.383Z,-0.51
2022-11-24T12:19:35.940Z,-0.51
2022-11-24T12:22:13.176Z,-0.51
2022-11-24T12:24:57.207Z,-0.49
2022-11-24T12:27:57.712Z,-0.49
2022-11-24T12:30:30.099Z,-0.47
2022-11-24T12:33:13.520Z,-0.45
2022-11-24T12:35:47.647Z,-0.43
2022-11-24T12:38:30.971Z,-0.43
2022-11-24T12:41:43.977Z,-0.44
2022-11-24T12:44:40.509Z,-0.45
2022-11-24T12:47:27.447Z,-0.48
2022-11-24T12:50:20.308Z,-0.47
2022-11-24T12:52:58.787Z,-0.51
2022-11-24T12:55:30.337Z,-0.53
2022-11-24T12:58:20.447Z,-0.56
2022-11-24T13:01:00.801Z,-0.62
2022-11-24T13:03:49.757Z,-0.64
2022-11-24T13:06:25.059Z,-0.67
2022-11-24T13:08:54.109Z,-0.69
2022-11-24T13:11:23.049Z,-0.70
2022-11-24T13:14:13.639Z,-0.71
2022-11-24T13:19:43.816Z,-0.70
2022-11-24T13:22:25.870Z,-0.70
2022-11-24T13:25:16.485Z,-0.70
2022-11-24T13:27:48.721Z,-0.73
2022-11-24T13:30:53.912Z,-0.75
2022-11-24T13:33:31.585Z,-0.77
2022-11-24T13:36:22.907Z,-0.78
2022-11-24T13:38:50.980Z,-0.85
2022-11-24T13:41:37.189Z,-0.88
2022-11-24T13:44:14.887Z,-0.92
2022-11-24T13:47:31.006Z,-0.96
2022-11-24T13:50:00.490Z,-1.00
2022-11-24T13:52:40.965Z,-1.04
2022-11-24T13:55:11.815Z,-1.09
2022-11-24T13:57:43.975Z,-1.12
2022-11-24T14:00:32.123Z,-1.15
2022-11-24T14:03:14.543Z,-1.17
2022-11-24T14:05:49.300Z,-1.19
2022-11-24T14:08:24.222Z,-1.23
2022-11-24T14:10:54.746Z,-1.29
2022-11-24T14:13:25.493Z,-1.34
2022-11-24T14:16:02.744Z,-1.40
2022-11-24T14:18:32.192Z,-1.45
2022-11-24T14:21:16.580Z,-1.49
2022-11-24T14:23:47.073Z,-1.54
2022-11-24T14:26:21.454Z,-1.57
2022-11-24T14:28:50.624Z,-1.60
2022-11-24T14:31:25.228Z,-1.62
2022-11-24T14:34:12.677Z,-1.62
2022-11-24T14:36:41.198Z,-1.62
2022-11-24T14:39:14.587Z,-1.62
2022-11-24T14:41:51.663Z,-1.63
2022-11-24T14:44:26.117Z,-1.65
2022-11-24T14:47:06.523Z,-1.67
2022-11-24T14:49:41.627Z,-1.70
2022-11-24T14:52:15.790Z,-1.70
2022-11-24T14:55:21.421Z,-1.72
2022-11-24T14:57:49.859Z,-1.73
2022-11-24T15:00:20.957Z,-1.74
2022-11-24T15:02:55.428Z,-1.74
2022-11-24T15:05:25.708Z,-1.75
2022-11-24T15:08:03.060Z,-1.77
2022-11-24T15:10:36.699Z,-1.80
2022-11-24T15:13:18.165Z,-1.82
2022-11-24T15:15:56.347Z,-1.83
2022-11-24T15:18:35.662Z,-1.84
2022-11-24T15:21:04.149Z,-1.84
2022-11-24T15:23:33.969Z,-1.87
2022-11-24T15:26:01.945Z,-1.82
2022-11-24T15:28:31.404Z,-1.85
2022-11-24T15:31:01.527Z,-1.89
2022-11-24T15:33:30.571Z,-1.90
2022-11-24T15:35:59.924Z,-1.92
2022-11-24T15:38:28.218Z,-1.93
2022-11-24T15:41:00.923Z,-1.95
2022-11-24T15:43:38.910Z,-1.98
2022-11-24T15:46:08.838Z,-2.00
2022-11-24T15:48:37.162Z,-2.01
2022-11-24T15:51:08.069Z,-2.02
2022-11-24T15:53:48.506Z,-2.04
2022-11-24T15:56:35.020Z,-2.06
2022-11-24T15:59:03.944Z,-2.06
2022-11-24T16:01:33.896Z,-2.06
2022-11-24T16:04:02.730Z,-2.07
2022-11-24T16:06:31.211Z,-2.08
2022-11-24T16:08:59.536Z,-2.10
2022-11-24T16:11:27.950Z,-2.10
2022-11-24T16:13:56.155Z,-2.10
2022-11-24T16:16:25.473Z,-2.11
2022-11-24T16:18:53.734Z,-2.12
2022-11-24T16:21:21.971Z,-2.12
2022-11-24T16:23:50.108Z,-2.11
2022-11-24T16:26:18.297Z,-2.12
2022-11-24T16:28:46.448Z,-2.12
2022-11-24T16:31:16.436Z,-2.11
2022-11-24T16:33:45.427Z,-2.12
2022-11-24T16:36:14.322Z,-2.12
2022-11-24T16:38:42.434Z,-2.12
2022-11-24T16:41:10.724Z,-2.11
2022-11-24T16:43:38.970Z,-2.09
2022-11-24T16:46:23.149Z,-2.08
2022-11-24T16:49:00.179Z,-2.06
2022-11-24T16:51:34.502Z,-2.05
2022-11-24T16:54:03.849Z,-2.04
2022-11-24T16:56:32.135Z,-2.04
2022-11-24T16:59:00.279Z,-2.03
2022-11-24T17:01:29.987Z,-2.02
2022-11-24T17:03:59.283Z,-2.01
2022-11-24T17:06:27.840Z,-2.00
2022-11-24T17:08:56.029Z,-2.00
2022-11-24T17:11:26.027Z,-2.00
2022-11-24T17:13:56.327Z,-1.99
2022-11-24T17:16:26.368Z,-1.98
2022-11-24T17:18:54.717Z,-1.97
2022-11-24T17:21:25.639Z,-1.96
2022-11-24T17:23:55.742Z,-1.95
2022-11-24T17:26:25.544Z,-1.94
2022-11-24T17:28:54.877Z,-1.93
2022-11-24T17:31:28.598Z,-1.92
2022-11-24T17:33:58.711Z,-1.91
2022-11-24T17:36:29.723Z,-1.90
2022-11-24T17:39:00.193Z,-1.90
2022-11-24T17:41:28.288Z,-1.89
2022-11-24T17:43:56.758Z,-1.87
2022-11-24T17:46:26.393Z,-1.88
2022-11-24T17:48:55.400Z,-1.87
2022-11-24T17:51:25.232Z,-1.86
2022-11-24T17:53:55.002Z,-1.85
2022-11-24T17:56:25.646Z,-1.84
2022-11-24T17:58:59.969Z,-1.83
2022-11-24T18:01:30.270Z,-1.83
2022-11-24T18:03:58.810Z,-1.82
2022-11-24T18:06:29.443Z,-1.80
2022-11-24T18:08:58.430Z,-1.80
2022-11-24T18:11:31.669Z,-1.79
2022-11-24T18:14:03.421Z,-1.79
2022-11-24T18:16:34.529Z,-1.77
2022-11-24T18:19:09.177Z,-1.77
2022-11-24T18:21:40.356Z,-1.77
2022-11-24T18:24:09.545Z,-1.77
2022-11-24T18:26:38.784Z,-1.76
2022-11-24T18:29:06.897Z,-1.74
2022-11-24T18:31:36.038Z,-1.73
2022-11-24T18:34:06.083Z,-1.72
2022-11-24T18:36:35.214Z,-1.72
2022-11-24T18:39:05.339Z,-1.71
2022-11-24T18:41:36.879Z,-1.69
2022-11-24T18:44:08.254Z,-1.70
2022-11-24T18:46:37.812Z,-1.68
2022-11-24T18:49:07.364Z,-1.68
2022-11-24T18:51:36.208Z,-1.68
2022-11-24T18:54:05.649Z,-1.67
2022-11-24T18:56:34.725Z,-1.67
2022-11-24T18:59:02.933Z,-1.65
2022-11-24T19:01:32.238Z,-1.65
2022-11-24T19:04:05.519Z,-1.64
2022-11-24T19:06:37.766Z,-1.63
2022-11-24T19:09:09.237Z,-1.62
2022-11-24T19:11:40.204Z,-1.61
2022-11-24T19:14:19.446Z,-1.59
2022-11-24T19:16:50.544Z,-1.59
2022-11-24T19:19:18.630Z,-1.58
2022-11-24T19:21:46.834Z,-1.57
2022-11-24T19:24:14.919Z,-1.56
2022-11-24T19:26:43.067Z,-1.55
2022-11-24T19:29:11.439Z,-1.54
2022-11-24T19:31:42.165Z,-1.54
2022-11-24T19:34:10.706Z,-1.54
2022-11-24T19:36:40.693Z,-1.52
2022-11-24T19:39:14.684Z,-1.51
2022-11-24T19:41:42.926Z,-1.51
2022-11-24T19:44:11.923Z,-1.50
2022-11-24T19:46:40.856Z,-1.49
2022-11-24T19:49:09.198Z,-1.50
2022-11-24T19:51:39.721Z,-1.48
2022-11-24T19:54:13.393Z,-1.48
2022-11-24T19:56:42.017Z,-1.46
2022-11-24T19:59:13.068Z,-1.45
2022-11-24T20:01:42.743Z,-1.44
2022-11-24T20:04:15.117Z,-1.44
2022-11-24T20:06:46.363Z,-1.42
2022-11-24T20:09:25.050Z,-1.42
2022-11-24T20:11:53.083Z,-1.41
2022-11-24T20:14:22.152Z,-1.40
2022-11-24T20:16:50.982Z,-1.38
2022-11-24T20:19:19.142Z,-1.38
2022-11-24T20:21:49.402Z,-1.38
2022-11-24T20:24:23.432Z,-1.37
2022-11-24T20:26:56.501Z,-1.36
2022-11-24T20:29:25.251Z,-1.36
2022-11-24T20:31:55.547Z,-1.34
2022-11-24T20:34:28.458Z,-1.33
2022-11-24T20:36:56.890Z,-1.33
2022-11-24T20:39:27.886Z,-1.32
2022-11-24T20:41:56.604Z,-1.31
2022-11-24T20:44:26.826Z,-1.31
2022-11-24T20:46:56.915Z,-1.31
2022-11-24T20:49:26.019Z,-1.29
2022-11-24T20:51:55.158Z,-1.30
2022-11-24T20:54:23.853Z,-1.29
2022-11-24T20:56:52.097Z,-1.30
2022-11-24T20:59:22.783Z,-1.29
2022-11-24T21:01:59.208Z,-1.29
2022-11-24T21:04:27.626Z,-1.29
2022-11-24T21:06:56.353Z,-1.29
2022-11-24T21:09:25.101Z,-1.28
2022-11-24T21:11:53.500Z,-1.28
2022-11-24T21:14:21.771Z,-1.27
2022-11-24T21:16:52.430Z,-1.27
2022-11-24T21:19:21.285Z,-1.28
2022-11-24T21:21:52.345Z,-1.25
2022-11-24T21:24:23.174Z,-1.25
2022-11-24T21:26:52.976Z,-1.25
2022-11-24T21:29:23.733Z,-1.24
2022-11-24T21:31:52.573Z,-1.23
2022-11-24T21:34:20.918Z,-1.22
2022-11-24T21:36:49.524Z,-1.21
2022-11-24T21:39:19.285Z,-1.22
2022-11-24T21:41:47.853Z,-1.21
2022-11-24T21:44:16.093Z,-1.20
2022-11-24T21:46:49.524Z,-1.20
2022-11-24T21:49:19.361Z,-1.18
2022-11-24T21:51:47.722Z,-1.18
2022-11-24T21:54:15.779Z,-1.17
2022-11-24T21:56:43.869Z,-1.17
2022-11-24T21:59:13.107Z,-1.17
2022-11-24T22:01:41.372Z,-1.17
2022-11-24T22:04:09.795Z,-1.16
2022-11-24T22:06:39.300Z,-1.16
2022-11-24T22:09:07.536Z,-1.15
2022-11-24T22:11:35.588Z,-1.15
2022-11-24T22:14:03.725Z,-1.15
2022-11-24T22:16:32.050Z,-1.14
2022-11-24T22:19:00.861Z,-1.14
2022-11-24T22:21:33.589Z,-1.12
2022-11-24T22:24:02.529Z,-1.12
2022-11-24T22:26:30.940Z,-1.12
2022-11-24T22:28:59.869Z,-1.11
2022-11-24T22:31:30.683Z,-1.11
2022-11-24T22:34:00.710Z,-1.12
2022-11-24T22:36:30.164Z,-1.12
2022-11-24T22:39:03.354Z,-1.09
2022-11-24T22:41:33.662Z,-1.08
2022-11-24T22:44:02.375Z,-1.08
2022-11-24T22:46:31.931Z,-1.07
2022-11-24T22:49:01.838Z,-1.06
2022-11-24T22:51:33.097Z,-1.05
2022-11-24T22:54:03.651Z,-1.03
2022-11-24T22:56:33.029Z,-1.02
2022-11-24T22:59:02.740Z,-1.00
2022-11-24T23:01:34.306Z,-1.00
2022-11-24T23:04:03.913Z,-0.99
2022-11-24T23:06:34.285Z,-0.97
2022-11-24T23:09:04.377Z,-0.96
2022-11-24T23:11:38.271Z,-0.95
2022-11-24T23:14:11.861Z,-0.94
2022-11-24T23:16:40.175Z,-0.91
2022-11-24T23:19:09.716Z,-0.92
2022-11-24T23:21:38.571Z,-0.91
2022-11-24T23:24:08.696Z,-0.90
2022-11-24T23:26:40.269Z,-0.90
2022-11-24T23:29:10.407Z,-0.90
2022-11-24T23:31:40.271Z,-0.89
2022-11-24T23:34:08.983Z,-0.89
2022-11-24T23:36:37.255Z,-0.88
2022-11-24T23:39:07.333Z,-0.88
2022-11-24T23:41:35.696Z,-0.87
2022-11-24T23:44:03.888Z,-0.86
2022-11-24T23:46:32.321Z,-0.85
2022-11-24T23:49:00.525Z,-0.86
2022-11-24T23:51:30.993Z,-0.85
2022-11-24T23:54:02.627Z,-0.85
2022-11-24T23:56:32.799Z,-0.84
2022-11-24T23:59:02.980Z,-0.84
